sensor_id;sensor_type;location;lat;lon;timestamp;pressure;altitude;pressure_sealevel;temperature;humidity
37832;BME280;23671;38.090;-122.570;2023-04-06T00:00:59;102120.03;;;18.83;45.92
37832;BME280;23671;38.090;-122.570;2023-04-06T00:03:26;102122.28;;;18.78;46.14
37832;BME280;23671;38.090;-122.570;2023-04-06T00:05:53;102115.09;;;18.88;46.36
37832;BME280;23671;38.090;-122.570;2023-04-06T00:08:20;102123.28;;;18.87;46.03
37832;BME280;23671;38.090;-122.570;2023-04-06T00:10:48;102119.50;;;18.89;46.42
37832;BME280;23671;38.090;-122.570;2023-04-06T00:13:15;102112.97;;;18.92;46.28
37832;BME280;23671;38.090;-122.570;2023-04-06T00:15:42;102113.97;;;18.91;46.22
37832;BME280;23671;38.090;-122.570;2023-04-06T00:18:09;102111.00;;;18.84;46.35
37832;BME280;23671;38.090;-122.570;2023-04-06T00:20:36;102115.25;;;18.87;46.51
37832;BME280;23671;38.090;-122.570;2023-04-06T00:23:03;102114.41;;;18.86;46.81
37832;BME280;23671;38.090;-122.570;2023-04-06T00:25:30;102110.44;;;18.81;46.77
37832;BME280;23671;38.090;-122.570;2023-04-06T00:27:57;102107.63;;;18.82;46.91
37832;BME280;23671;38.090;-122.570;2023-04-06T00:30:24;102108.19;;;18.76;46.99
37832;BME280;23671;38.090;-122.570;2023-04-06T00:32:51;102116.09;;;18.78;47.18
37832;BME280;23671;38.090;-122.570;2023-04-06T00:35:18;102113.69;;;18.75;47.24
37832;BME280;23671;38.090;-122.570;2023-04-06T00:37:47;102115.94;;;18.79;47.34
37832;BME280;23671;38.090;-122.570;2023-04-06T00:40:19;102112.97;;;18.82;47.30
37832;BME280;23671;38.090;-122.570;2023-04-06T00:42:47;102116.66;;;18.81;47.22
37832;BME280;23671;38.090;-122.570;2023-04-06T00:45:14;102111.31;;;18.81;47.12
37832;BME280;23671;38.090;-122.570;2023-04-06T00:47:41;102114.94;;;18.80;47.17
37832;BME280;23671;38.090;-122.570;2023-04-06T00:50:09;102109.75;;;18.79;47.09
37832;BME280;23671;38.090;-122.570;2023-04-06T00:52:36;102114.53;;;18.75;47.19
37832;BME280;23671;38.090;-122.570;2023-04-06T00:55:04;102108.19;;;18.76;47.29
37832;BME280;23671;38.090;-122.570;2023-04-06T00:57:34;102110.16;;;18.74;47.25
37832;BME280;23671;38.090;-122.570;2023-04-06T01:00:01;102100.44;;;18.73;47.36
37832;BME280;23671;38.090;-122.570;2023-04-06T01:02:29;102103.44;;;18.70;47.38
37832;BME280;23671;38.090;-122.570;2023-04-06T01:04:57;102105.41;;;18.68;47.21
37832;BME280;23671;38.090;-122.570;2023-04-06T01:07:24;102111.28;;;18.62;47.26
37832;BME280;23671;38.090;-122.570;2023-04-06T01:09:53;102108.06;;;18.59;47.36
37832;BME280;23671;38.090;-122.570;2023-04-06T01:12:20;102104.09;;;18.53;47.46
37832;BME280;23671;38.090;-122.570;2023-04-06T01:14:47;102110.69;;;18.49;47.44
37832;BME280;23671;38.090;-122.570;2023-04-06T01:17:14;102104.78;;;18.46;47.48
37832;BME280;23671;38.090;-122.570;2023-04-06T01:19:42;102103.25;;;18.43;47.58
37832;BME280;23671;38.090;-122.570;2023-04-06T01:22:12;102098.13;;;18.40;47.00
37832;BME280;23671;38.090;-122.570;2023-04-06T01:24:39;102097.00;;;18.33;47.05
37832;BME280;23671;38.090;-122.570;2023-04-06T01:27:06;102102.50;;;18.32;47.21
37832;BME280;23671;38.090;-122.570;2023-04-06T01:29:33;102110.06;;;18.27;46.87
37832;BME280;23671;38.090;-122.570;2023-04-06T01:32:01;102101.63;;;18.22;46.67
37832;BME280;23671;38.090;-122.570;2023-04-06T01:34:28;102095.41;;;18.21;46.38
37832;BME280;23671;38.090;-122.570;2023-04-06T01:36:55;102096.94;;;18.14;46.72
37832;BME280;23671;38.090;-122.570;2023-04-06T01:39:22;102091.16;;;18.09;45.84
37832;BME280;23671;38.090;-122.570;2023-04-06T01:41:49;102095.06;;;18.05;46.50
37832;BME280;23671;38.090;-122.570;2023-04-06T01:44:19;102088.59;;;17.98;45.82
37832;BME280;23671;38.090;-122.570;2023-04-06T01:46:46;102095.19;;;17.94;46.25
37832;BME280;23671;38.090;-122.570;2023-04-06T01:49:13;102090.25;;;17.89;46.43
37832;BME280;23671;38.090;-122.570;2023-04-06T01:51:41;102090.50;;;17.86;45.96
37832;BME280;23671;38.090;-122.570;2023-04-06T01:54:08;102080.66;;;17.77;45.79
37832;BME280;23671;38.090;-122.570;2023-04-06T01:56:35;102085.28;;;17.75;45.70
37832;BME280;23671;38.090;-122.570;2023-04-06T01:59:02;102084.81;;;17.70;46.41
37832;BME280;23671;38.090;-122.570;2023-04-06T02:01:29;102083.41;;;17.66;46.55
37832;BME280;23671;38.090;-122.570;2023-04-06T02:03:56;102081.72;;;17.65;45.54
37832;BME280;23671;38.090;-122.570;2023-04-06T02:06:23;102078.19;;;17.65;45.70
37832;BME280;23671;38.090;-122.570;2023-04-06T02:08:51;102085.19;;;17.56;45.27
37832;BME280;23671;38.090;-122.570;2023-04-06T02:11:18;102085.56;;;17.52;45.73
37832;BME280;23671;38.090;-122.570;2023-04-06T02:13:46;102086.78;;;17.48;45.56
37832;BME280;23671;38.090;-122.570;2023-04-06T02:16:13;102093.13;;;17.47;45.69
37832;BME280;23671;38.090;-122.570;2023-04-06T02:18:41;102093.63;;;17.41;45.54
37832;BME280;23671;38.090;-122.570;2023-04-06T02:21:08;102095.22;;;17.43;44.88
37832;BME280;23671;38.090;-122.570;2023-04-06T02:23:35;102089.78;;;17.34;45.18
37832;BME280;23671;38.090;-122.570;2023-04-06T02:26:02;102089.09;;;17.32;45.01
37832;BME280;23671;38.090;-122.570;2023-04-06T02:28:29;102088.75;;;17.25;45.34
37832;BME280;23671;38.090;-122.570;2023-04-06T02:30:56;102089.09;;;17.11;45.30
37832;BME280;23671;38.090;-122.570;2023-04-06T02:33:23;102091.88;;;17.09;45.41
37832;BME280;23671;38.090;-122.570;2023-04-06T02:35:50;102090.00;;;17.00;45.29
37832;BME280;23671;38.090;-122.570;2023-04-06T02:38:17;102093.31;;;16.93;45.19
37832;BME280;23671;38.090;-122.570;2023-04-06T02:40:44;102093.94;;;16.85;45.50
37832;BME280;23671;38.090;-122.570;2023-04-06T02:43:11;102088.88;;;16.82;45.59
37832;BME280;23671;38.090;-122.570;2023-04-06T02:45:38;102092.91;;;16.77;45.34
37832;BME280;23671;38.090;-122.570;2023-04-06T02:48:06;102088.34;;;16.68;44.96
37832;BME280;23671;38.090;-122.570;2023-04-06T02:50:33;102087.84;;;16.63;45.62
37832;BME280;23671;38.090;-122.570;2023-04-06T02:53:00;102086.31;;;16.60;45.32
37832;BME280;23671;38.090;-122.570;2023-04-06T02:55:27;102082.78;;;16.60;45.20
37832;BME280;23671;38.090;-122.570;2023-04-06T02:57:54;102089.56;;;16.53;45.65
37832;BME280;23671;38.090;-122.570;2023-04-06T03:00:21;102093.22;;;16.52;44.20
37832;BME280;23671;38.090;-122.570;2023-04-06T03:02:48;102087.50;;;16.45;44.76
37832;BME280;23671;38.090;-122.570;2023-04-06T03:05:15;102090.56;;;16.41;45.05
37832;BME280;23671;38.090;-122.570;2023-04-06T03:07:42;102088.00;;;16.39;43.72
37832;BME280;23671;38.090;-122.570;2023-04-06T03:10:09;102095.31;;;16.37;43.77
37832;BME280;23671;38.090;-122.570;2023-04-06T03:12:37;102080.75;;;16.30;43.86
37832;BME280;23671;38.090;-122.570;2023-04-06T03:15:04;102086.09;;;16.30;43.54
37832;BME280;23671;38.090;-122.570;2023-04-06T03:17:31;102089.97;;;16.26;43.41
37832;BME280;23671;38.090;-122.570;2023-04-06T03:19:58;102083.34;;;16.20;43.55
37832;BME280;23671;38.090;-122.570;2023-04-06T03:22:25;102094.75;;;16.11;43.72
37832;BME280;23671;38.090;-122.570;2023-04-06T03:24:52;102093.28;;;16.07;43.81
37832;BME280;23671;38.090;-122.570;2023-04-06T03:27:19;102105.28;;;16.02;43.84
37832;BME280;23671;38.090;-122.570;2023-04-06T03:29:46;102106.00;;;15.93;43.62
37832;BME280;23671;38.090;-122.570;2023-04-06T03:32:13;102108.06;;;15.89;43.36
37832;BME280;23671;38.090;-122.570;2023-04-06T03:34:40;102112.06;;;15.84;43.80
37832;BME280;23671;38.090;-122.570;2023-04-06T03:37:08;102107.22;;;15.78;43.89
37832;BME280;23671;38.090;-122.570;2023-04-06T03:39:35;102118.59;;;15.69;43.64
37832;BME280;23671;38.090;-122.570;2023-04-06T03:42:02;102118.59;;;15.69;43.68
37832;BME280;23671;38.090;-122.570;2023-04-06T03:44:32;102111.09;;;15.63;43.67
37832;BME280;23671;38.090;-122.570;2023-04-06T03:47:02;102111.69;;;15.55;43.59
37832;BME280;23671;38.090;-122.570;2023-04-06T03:49:29;102121.13;;;15.48;43.72
37832;BME280;23671;38.090;-122.570;2023-04-06T03:52:00;102108.03;;;15.45;43.60
37832;BME280;23671;38.090;-122.570;2023-04-06T03:54:27;102108.47;;;15.28;43.84
37832;BME280;23671;38.090;-122.570;2023-04-06T03:56:54;102107.84;;;15.24;43.86
37832;BME280;23671;38.090;-122.570;2023-04-06T03:59:21;102107.38;;;15.19;44.03
37832;BME280;23671;38.090;-122.570;2023-04-06T04:01:48;102110.72;;;15.10;43.99
37832;BME280;23671;38.090;-122.570;2023-04-06T04:04:16;102115.75;;;15.02;44.33
37832;BME280;23671;38.090;-122.570;2023-04-06T04:06:43;102111.88;;;14.95;44.54
37832;BME280;23671;38.090;-122.570;2023-04-06T04:09:10;102109.44;;;14.92;44.25
37832;BME280;23671;38.090;-122.570;2023-04-06T04:11:37;102109.38;;;14.81;44.59
37832;BME280;23671;38.090;-122.570;2023-04-06T04:14:04;102114.44;;;14.73;44.31
37832;BME280;23671;38.090;-122.570;2023-04-06T04:16:31;102118.50;;;14.66;44.95
37832;BME280;23671;38.090;-122.570;2023-04-06T04:18:58;102117.16;;;14.61;44.76
37832;BME280;23671;38.090;-122.570;2023-04-06T04:21:25;102119.75;;;14.49;44.99
37832;BME280;23671;38.090;-122.570;2023-04-06T04:23:53;102124.97;;;14.51;45.30
37832;BME280;23671;38.090;-122.570;2023-04-06T04:26:20;102127.13;;;14.46;44.79
37832;BME280;23671;38.090;-122.570;2023-04-06T04:28:47;102120.31;;;14.42;45.12
37832;BME280;23671;38.090;-122.570;2023-04-06T04:31:14;102126.81;;;14.38;45.13
37832;BME280;23671;38.090;-122.570;2023-04-06T04:33:41;102121.72;;;14.35;45.02
37832;BME280;23671;38.090;-122.570;2023-04-06T04:36:08;102134.50;;;14.30;45.54
37832;BME280;23671;38.090;-122.570;2023-04-06T04:38:36;102135.75;;;14.24;45.02
37832;BME280;23671;38.090;-122.570;2023-04-06T04:41:03;102135.13;;;14.21;45.15
37832;BME280;23671;38.090;-122.570;2023-04-06T04:43:30;102130.25;;;14.15;45.48
37832;BME280;23671;38.090;-122.570;2023-04-06T04:45:57;102135.75;;;14.12;45.09
37832;BME280;23671;38.090;-122.570;2023-04-06T04:48:25;102124.88;;;14.04;45.44
37832;BME280;23671;38.090;-122.570;2023-04-06T04:50:52;102125.50;;;13.95;45.86
37832;BME280;23671;38.090;-122.570;2023-04-06T04:53:21;102139.63;;;13.95;45.28
37832;BME280;23671;38.090;-122.570;2023-04-06T04:55:48;102136.47;;;13.90;45.33
37832;BME280;23671;38.090;-122.570;2023-04-06T04:58:16;102133.88;;;13.89;45.49
37832;BME280;23671;38.090;-122.570;2023-04-06T05:00:46;102128.81;;;13.86;45.77
37832;BME280;23671;38.090;-122.570;2023-04-06T05:03:21;102132.94;;;13.77;45.83
37832;BME280;23671;38.090;-122.570;2023-04-06T05:05:49;102136.56;;;13.76;45.57
37832;BME280;23671;38.090;-122.570;2023-04-06T05:08:16;102139.66;;;13.70;45.46
37832;BME280;23671;38.090;-122.570;2023-04-06T05:10:43;102138.91;;;13.68;45.70
37832;BME280;23671;38.090;-122.570;2023-04-06T05:13:14;102147.28;;;13.62;45.96
37832;BME280;23671;38.090;-122.570;2023-04-06T05:15:42;102141.97;;;13.62;45.72
37832;BME280;23671;38.090;-122.570;2023-04-06T05:18:09;102136.03;;;13.58;45.95
37832;BME280;23671;38.090;-122.570;2023-04-06T05:20:38;102140.81;;;13.53;46.18
37832;BME280;23671;38.090;-122.570;2023-04-06T05:23:05;102141.13;;;13.49;46.17
37832;BME280;23671;38.090;-122.570;2023-04-06T05:25:33;102142.28;;;13.45;45.98
37832;BME280;23671;38.090;-122.570;2023-04-06T05:28:00;102139.63;;;13.45;45.89
37832;BME280;23671;38.090;-122.570;2023-04-06T05:30:27;102142.81;;;13.37;45.95
37832;BME280;23671;38.090;-122.570;2023-04-06T05:32:55;102145.78;;;13.33;46.05
37832;BME280;23671;38.090;-122.570;2023-04-06T05:35:22;102134.81;;;13.25;46.60
37832;BME280;23671;38.090;-122.570;2023-04-06T05:37:49;102145.34;;;13.26;46.68
37832;BME280;23671;38.090;-122.570;2023-04-06T05:40:16;102150.22;;;13.20;46.56
37832;BME280;23671;38.090;-122.570;2023-04-06T05:42:43;102151.38;;;13.16;46.41
37832;BME280;23671;38.090;-122.570;2023-04-06T05:45:11;102148.28;;;13.09;46.67
37832;BME280;23671;38.090;-122.570;2023-04-06T05:47:44;102149.53;;;13.04;46.68
37832;BME280;23671;38.090;-122.570;2023-04-06T05:50:12;102152.25;;;13.02;46.16
37832;BME280;23671;38.090;-122.570;2023-04-06T05:52:39;102153.22;;;13.01;46.88
37832;BME280;23671;38.090;-122.570;2023-04-06T05:55:10;102153.50;;;12.97;46.63
37832;BME280;23671;38.090;-122.570;2023-04-06T05:57:37;102151.16;;;12.92;47.09
37832;BME280;23671;38.090;-122.570;2023-04-06T06:00:06;102145.22;;;12.89;47.12
37832;BME280;23671;38.090;-122.570;2023-04-06T06:02:35;102146.81;;;12.91;46.86
37832;BME280;23671;38.090;-122.570;2023-04-06T06:05:02;102148.06;;;12.86;47.09
37832;BME280;23671;38.090;-122.570;2023-04-06T06:07:29;102156.13;;;12.84;47.25
37832;BME280;23671;38.090;-122.570;2023-04-06T06:10:00;102142.31;;;12.79;47.23
37832;BME280;23671;38.090;-122.570;2023-04-06T06:12:27;102137.41;;;12.73;46.59
37832;BME280;23671;38.090;-122.570;2023-04-06T06:14:54;102142.16;;;12.68;47.17
37832;BME280;23671;38.090;-122.570;2023-04-06T06:17:21;102140.13;;;12.59;47.16
37832;BME280;23671;38.090;-122.570;2023-04-06T06:19:48;102136.63;;;12.58;47.60
37832;BME280;23671;38.090;-122.570;2023-04-06T06:22:16;102135.59;;;12.61;47.46
37832;BME280;23671;38.090;-122.570;2023-04-06T06:24:43;102135.22;;;12.53;47.30
37832;BME280;23671;38.090;-122.570;2023-04-06T06:27:10;102139.66;;;12.52;47.18
37832;BME280;23671;38.090;-122.570;2023-04-06T06:29:37;102142.59;;;12.48;47.26
37832;BME280;23671;38.090;-122.570;2023-04-06T06:32:04;102145.84;;;12.39;47.64
37832;BME280;23671;38.090;-122.570;2023-04-06T06:34:31;102142.66;;;12.34;47.70
37832;BME280;23671;38.090;-122.570;2023-04-06T06:36:58;102145.38;;;12.32;47.38
37832;BME280;23671;38.090;-122.570;2023-04-06T06:39:26;102140.94;;;12.33;47.57
37832;BME280;23671;38.090;-122.570;2023-04-06T06:41:53;102140.56;;;12.25;47.34
37832;BME280;23671;38.090;-122.570;2023-04-06T06:44:21;102136.13;;;12.25;47.21
37832;BME280;23671;38.090;-122.570;2023-04-06T06:46:48;102144.28;;;12.22;47.20
37832;BME280;23671;38.090;-122.570;2023-04-06T06:49:15;102139.16;;;12.19;47.43
37832;BME280;23671;38.090;-122.570;2023-04-06T06:51:42;102145.41;;;12.18;47.72
37832;BME280;23671;38.090;-122.570;2023-04-06T06:54:09;102146.44;;;12.16;47.58
37832;BME280;23671;38.090;-122.570;2023-04-06T06:56:36;102135.59;;;12.20;47.53
37832;BME280;23671;38.090;-122.570;2023-04-06T06:59:05;102136.81;;;12.15;47.25
37832;BME280;23671;38.090;-122.570;2023-04-06T07:01:35;102130.28;;;12.06;47.79
37832;BME280;23671;38.090;-122.570;2023-04-06T07:04:02;102129.44;;;12.06;47.88
37832;BME280;23671;38.090;-122.570;2023-04-06T07:06:29;102124.25;;;12.04;47.37
37832;BME280;23671;38.090;-122.570;2023-04-06T07:08:56;102126.25;;;12.01;47.88
37832;BME280;23671;38.090;-122.570;2023-04-06T07:11:23;102123.78;;;11.98;47.36
37832;BME280;23671;38.090;-122.570;2023-04-06T07:13:50;102126.53;;;11.96;47.36
37832;BME280;23671;38.090;-122.570;2023-04-06T07:16:18;102130.94;;;11.96;47.53
37832;BME280;23671;38.090;-122.570;2023-04-06T07:18:45;102130.50;;;11.89;47.45
37832;BME280;23671;38.090;-122.570;2023-04-06T07:21:12;102142.50;;;11.80;48.03
37832;BME280;23671;38.090;-122.570;2023-04-06T07:23:39;102139.84;;;11.80;47.56
37832;BME280;23671;38.090;-122.570;2023-04-06T07:26:06;102145.50;;;11.74;47.58
37832;BME280;23671;38.090;-122.570;2023-04-06T07:28:33;102143.72;;;11.75;47.97
37832;BME280;23671;38.090;-122.570;2023-04-06T07:31:00;102136.00;;;11.72;48.04
37832;BME280;23671;38.090;-122.570;2023-04-06T07:33:27;102133.50;;;11.69;47.60
37832;BME280;23671;38.090;-122.570;2023-04-06T07:35:56;102137.97;;;11.68;47.70
37832;BME280;23671;38.090;-122.570;2023-04-06T07:38:24;102144.28;;;11.66;47.56
37832;BME280;23671;38.090;-122.570;2023-04-06T07:40:51;102135.56;;;11.64;47.89
37832;BME280;23671;38.090;-122.570;2023-04-06T07:43:21;102142.66;;;11.63;48.07
37832;BME280;23671;38.090;-122.570;2023-04-06T07:45:47;102140.69;;;11.67;47.75
37832;BME280;23671;38.090;-122.570;2023-04-06T07:48:14;102137.34;;;11.63;47.39
37832;BME280;23671;38.090;-122.570;2023-04-06T07:50:41;102137.00;;;11.69;47.35
37832;BME280;23671;38.090;-122.570;2023-04-06T07:53:09;102145.50;;;11.60;47.61
37832;BME280;23671;38.090;-122.570;2023-04-06T07:55:36;102144.25;;;11.52;47.79
37832;BME280;23671;38.090;-122.570;2023-04-06T07:58:03;102139.91;;;11.51;47.80
37832;BME280;23671;38.090;-122.570;2023-04-06T08:00:31;102139.22;;;11.47;47.97
37832;BME280;23671;38.090;-122.570;2023-04-06T08:02:58;102144.13;;;11.53;47.19
37832;BME280;23671;38.090;-122.570;2023-04-06T08:05:25;102136.78;;;11.58;47.59
37832;BME280;23671;38.090;-122.570;2023-04-06T08:07:54;102145.19;;;11.51;47.29
37832;BME280;23671;38.090;-122.570;2023-04-06T08:10:21;102134.97;;;11.45;47.38
37832;BME280;23671;38.090;-122.570;2023-04-06T08:12:48;102146.22;;;11.48;47.63
37832;BME280;23671;38.090;-122.570;2023-04-06T08:15:15;102141.19;;;11.44;47.53
37832;BME280;23671;38.090;-122.570;2023-04-06T08:17:44;102141.66;;;11.36;47.87
37832;BME280;23671;38.090;-122.570;2023-04-06T08:20:11;102131.84;;;11.38;47.58
37832;BME280;23671;38.090;-122.570;2023-04-06T08:22:38;102141.00;;;11.33;47.74
37832;BME280;23671;38.090;-122.570;2023-04-06T08:25:05;102135.59;;;11.34;47.32
37832;BME280;23671;38.090;-122.570;2023-04-06T08:27:33;102127.88;;;11.31;47.54
37832;BME280;23671;38.090;-122.570;2023-04-06T08:30:00;102122.59;;;11.31;47.63
37832;BME280;23671;38.090;-122.570;2023-04-06T08:32:27;102123.34;;;11.33;47.25
37832;BME280;23671;38.090;-122.570;2023-04-06T08:34:57;102130.63;;;11.30;47.29
37832;BME280;23671;38.090;-122.570;2023-04-06T08:37:24;102124.56;;;11.28;47.24
37832;BME280;23671;38.090;-122.570;2023-04-06T08:39:51;102123.13;;;11.22;47.36
37832;BME280;23671;38.090;-122.570;2023-04-06T08:42:23;102128.44;;;11.22;47.80
37832;BME280;23671;38.090;-122.570;2023-04-06T08:44:52;102132.34;;;11.15;47.59
37832;BME280;23671;38.090;-122.570;2023-04-06T08:47:19;102131.03;;;11.08;47.57
37832;BME280;23671;38.090;-122.570;2023-04-06T08:49:46;102130.25;;;11.06;47.96
37832;BME280;23671;38.090;-122.570;2023-04-06T08:52:17;102129.25;;;11.09;47.53
37832;BME280;23671;38.090;-122.570;2023-04-06T08:54:45;102126.50;;;11.10;47.42
37832;BME280;23671;38.090;-122.570;2023-04-06T08:57:12;102123.00;;;11.10;47.43
37832;BME280;23671;38.090;-122.570;2023-04-06T08:59:40;102124.88;;;11.08;47.43
37832;BME280;23671;38.090;-122.570;2023-04-06T09:02:15;102115.53;;;11.02;47.46
37832;BME280;23671;38.090;-122.570;2023-04-06T09:04:52;102127.97;;;11.00;47.68
37832;BME280;23671;38.090;-122.570;2023-04-06T09:07:20;102117.59;;;10.97;47.51
37832;BME280;23671;38.090;-122.570;2023-04-06T09:09:47;102118.44;;;10.97;47.67
37832;BME280;23671;38.090;-122.570;2023-04-06T09:12:31;102117.59;;;10.97;47.43
37832;BME280;23671;38.090;-122.570;2023-04-06T09:15:00;102118.88;;;10.90;47.68
37832;BME280;23671;38.090;-122.570;2023-04-06T09:17:28;102111.13;;;10.87;47.44
37832;BME280;23671;38.090;-122.570;2023-04-06T09:19:56;102109.63;;;10.83;47.85
37832;BME280;23671;38.090;-122.570;2023-04-06T09:22:23;102107.72;;;10.85;47.46
37832;BME280;23671;38.090;-122.570;2023-04-06T09:24:53;102108.84;;;10.81;47.91
37832;BME280;23671;38.090;-122.570;2023-04-06T09:27:59;102102.13;;;10.75;47.95
37832;BME280;23671;38.090;-122.570;2023-04-06T09:30:26;102105.69;;;10.74;47.89
37832;BME280;23671;38.090;-122.570;2023-04-06T09:32:56;102105.69;;;10.74;47.97
37832;BME280;23671;38.090;-122.570;2023-04-06T09:35:24;102098.13;;;10.68;48.08
37832;BME280;23671;38.090;-122.570;2023-04-06T09:37:53;102099.75;;;10.71;48.20
37832;BME280;23671;38.090;-122.570;2023-04-06T09:40:21;102090.97;;;10.70;47.84
37832;BME280;23671;38.090;-122.570;2023-04-06T09:42:49;102089.81;;;10.60;48.06
37832;BME280;23671;38.090;-122.570;2023-04-06T09:45:21;102090.63;;;10.61;48.15
37832;BME280;23671;38.090;-122.570;2023-04-06T09:47:48;102093.47;;;10.58;48.11
37832;BME280;23671;38.090;-122.570;2023-04-06T09:50:18;102094.47;;;10.55;48.12
37832;BME280;23671;38.090;-122.570;2023-04-06T09:52:51;102097.88;;;10.57;48.09
37832;BME280;23671;38.090;-122.570;2023-04-06T09:55:35;102091.16;;;10.52;48.04
37832;BME280;23671;38.090;-122.570;2023-04-06T09:58:11;102087.00;;;10.48;48.13
37832;BME280;23671;38.090;-122.570;2023-04-06T10:01:09;102086.13;;;10.47;48.18
37832;BME280;23671;38.090;-122.570;2023-04-06T10:06:20;102069.53;;;10.45;48.29
37832;BME280;23671;38.090;-122.570;2023-04-06T10:08:49;102058.31;;;10.42;48.12
37832;BME280;23671;38.090;-122.570;2023-04-06T10:11:20;102053.78;;;10.44;48.50
37832;BME280;23671;38.090;-122.570;2023-04-06T10:13:48;102046.91;;;10.41;48.36
37832;BME280;23671;38.090;-122.570;2023-04-06T10:16:17;102045.97;;;10.42;48.14
37832;BME280;23671;38.090;-122.570;2023-04-06T10:18:55;102033.78;;;10.40;48.12
37832;BME280;23671;38.090;-122.570;2023-04-06T10:21:26;102039.41;;;10.34;48.42
37832;BME280;23671;38.090;-122.570;2023-04-06T10:24:00;102037.81;;;10.31;48.37
37832;BME280;23671;38.090;-122.570;2023-04-06T10:26:28;102034.31;;;10.31;48.54
37832;BME280;23671;38.090;-122.570;2023-04-06T10:29:01;102041.38;;;10.30;48.52
37832;BME280;23671;38.090;-122.570;2023-04-06T10:31:29;102050.41;;;10.26;48.70
37832;BME280;23671;38.090;-122.570;2023-04-06T10:34:02;102054.91;;;10.24;48.50
37832;BME280;23671;38.090;-122.570;2023-04-06T10:36:33;102049.63;;;10.24;48.43
37832;BME280;23671;38.090;-122.570;2023-04-06T10:39:05;102041.91;;;10.21;48.55
37832;BME280;23671;38.090;-122.570;2023-04-06T10:41:41;102041.38;;;10.15;48.69
37832;BME280;23671;38.090;-122.570;2023-04-06T10:44:08;102036.78;;;10.18;48.58
37832;BME280;23671;38.090;-122.570;2023-04-06T10:46:53;102021.31;;;10.12;48.58
37832;BME280;23671;38.090;-122.570;2023-04-06T10:49:21;102019.69;;;10.10;48.48
37832;BME280;23671;38.090;-122.570;2023-04-06T10:51:55;102012.63;;;10.10;48.96
37832;BME280;23671;38.090;-122.570;2023-04-06T10:54:25;102002.19;;;10.07;49.25
37832;BME280;23671;38.090;-122.570;2023-04-06T10:56:52;102004.75;;;10.08;48.91
37832;BME280;23671;38.090;-122.570;2023-04-06T10:59:20;102004.75;;;10.08;48.76
37832;BME280;23671;38.090;-122.570;2023-04-06T11:01:48;101997.00;;;10.05;48.87
37832;BME280;23671;38.090;-122.570;2023-04-06T11:04:19;101991.84;;;10.04;49.02
37832;BME280;23671;38.090;-122.570;2023-04-06T11:06:48;101983.16;;;10.02;48.69
37832;BME280;23671;38.090;-122.570;2023-04-06T11:09:26;101984.06;;;10.01;48.90
37832;BME280;23671;38.090;-122.570;2023-04-06T11:11:54;101992.25;;;9.96;49.28
37832;BME280;23671;38.090;-122.570;2023-04-06T11:14:22;101995.66;;;9.98;49.30
37832;BME280;23671;38.090;-122.570;2023-04-06T11:16:49;101995.72;;;9.97;48.75
37832;BME280;23671;38.090;-122.570;2023-04-06T11:19:17;101996.78;;;9.94;49.53
37832;BME280;23671;38.090;-122.570;2023-04-06T11:21:46;101992.41;;;9.93;49.29
37832;BME280;23671;38.090;-122.570;2023-04-06T11:24:22;101995.06;;;9.93;49.27
37832;BME280;23671;38.090;-122.570;2023-04-06T11:26:57;101990.72;;;9.92;49.05
37832;BME280;23671;38.090;-122.570;2023-04-06T11:29:27;102006.66;;;9.91;49.03
37832;BME280;23671;38.090;-122.570;2023-04-06T11:32:00;101992.69;;;9.89;48.92
37832;BME280;23671;38.090;-122.570;2023-04-06T11:34:30;101992.00;;;9.85;49.46
37832;BME280;23671;38.090;-122.570;2023-04-06T11:36:59;101984.84;;;9.87;49.02
37832;BME280;23671;38.090;-122.570;2023-04-06T11:39:27;101983.31;;;9.83;49.48
37832;BME280;23671;38.090;-122.570;2023-04-06T11:42:01;101993.88;;;9.83;49.52
37832;BME280;23671;38.090;-122.570;2023-04-06T11:47:06;101986.03;;;9.82;49.60
37832;BME280;23671;38.090;-122.570;2023-04-06T11:49:38;101984.25;;;9.82;49.07
37832;BME280;23671;38.090;-122.570;2023-04-06T11:52:19;101971.41;;;9.76;49.27
37832;BME280;23671;38.090;-122.570;2023-04-06T11:54:48;101981.19;;;9.74;49.12
37832;BME280;23671;38.090;-122.570;2023-04-06T11:57:16;101977.97;;;9.69;49.43
37832;BME280;23671;38.090;-122.570;2023-04-06T11:59:44;101977.88;;;9.71;49.72
37832;BME280;23671;38.090;-122.570;2023-04-06T12:02:11;101984.00;;;9.71;49.36
37832;BME280;23671;38.090;-122.570;2023-04-06T12:04:38;101991.94;;;9.71;49.74
37832;BME280;23671;38.090;-122.570;2023-04-06T12:07:06;101994.72;;;9.68;49.27
37832;BME280;23671;38.090;-122.570;2023-04-06T12:09:33;101996.75;;;9.63;49.26
37832;BME280;23671;38.090;-122.570;2023-04-06T12:12:01;101998.63;;;9.61;49.48
37832;BME280;23671;38.090;-122.570;2023-04-06T12:14:28;102000.16;;;9.65;49.66
37832;BME280;23671;38.090;-122.570;2023-04-06T12:16:57;101989.97;;;9.59;49.80
37832;BME280;23671;38.090;-122.570;2023-04-06T12:19:25;102005.78;;;9.59;49.16
37832;BME280;23671;38.090;-122.570;2023-04-06T12:21:54;102004.25;;;9.55;49.47
37832;BME280;23671;38.090;-122.570;2023-04-06T12:24:23;102012.31;;;9.52;49.39
37832;BME280;23671;38.090;-122.570;2023-04-06T12:26:50;102022.59;;;9.57;49.17
37832;BME280;23671;38.090;-122.570;2023-04-06T12:29:17;102023.03;;;9.49;49.34
37832;BME280;23671;38.090;-122.570;2023-04-06T12:31:44;102023.09;;;9.48;49.88